Dell City, Texas
Current Conditions -  °F | °C
As of 6:51 PM on Saturday 20 Dec 2014 (Local Time) from KGDP Reporting Station
Clear Clear  
Wind Chill:   Ceiling: Unl
Heat Index:   Visibility: 10mi
Dew Point: -6°   Wind: 16mph
Humidity: 47%   Direction: 230°SW
Pressure: 30.08"   Gusts: NA
Location:  31.94°N, 105.2°W
Report Text: KGDP 210151Z AUTO 23014KT 10SM CLR 04/M06 A3008 RMK AO2 SLP183 T00441061
Loading
Personal Weather Stations






























Interactive Weather Map New forecast layout! Learn more

10-Day Weather Forecast

Advertisements
Track Severe Weather on mobile